sensor_id;sensor_type;location;lat;lon;timestamp;P1;durP1;ratioP1;P2;durP2;ratioP2
9836;SDS011;4957;51.412;6.724;2023-06-01T00:02:14;8.07;;;3.60;;
9836;SDS011;4957;51.412;6.724;2023-06-01T00:04:39;10.50;;;3.87;;
9836;SDS011;4957;51.412;6.724;2023-06-01T00:07:08;6.13;;;3.63;;
9836;SDS011;4957;51.412;6.724;2023-06-01T00:09:35;8.03;;;3.57;;
9836;SDS011;4957;51.412;6.724;2023-06-01T00:12:01;9.97;;;4.23;;
9836;SDS011;4957;51.412;6.724;2023-06-01T00:14:27;9.63;;;4.50;;
9836;SDS011;4957;51.412;6.724;2023-06-01T00:16:53;8.80;;;4.33;;
9836;SDS011;4957;51.412;6.724;2023-06-01T00:19:21;7.47;;;4.00;;
9836;SDS011;4957;51.412;6.724;2023-06-01T00:21:46;8.97;;;4.77;;
9836;SDS011;4957;51.412;6.724;2023-06-01T00:24:12;10.20;;;5.00;;
9836;SDS011;4957;51.412;6.724;2023-06-01T00:26:38;9.90;;;4.67;;
9836;SDS011;4957;51.412;6.724;2023-06-01T00:29:03;11.67;;;5.50;;
9836;SDS011;4957;51.412;6.724;2023-06-01T00:31:29;12.93;;;5.67;;
9836;SDS011;4957;51.412;6.724;2023-06-01T00:33:55;11.93;;;5.20;;
9836;SDS011;4957;51.412;6.724;2023-06-01T00:36:20;11.03;;;5.20;;
9836;SDS011;4957;51.412;6.724;2023-06-01T00:38:46;7.73;;;4.70;;
9836;SDS011;4957;51.412;6.724;2023-06-01T00:41:12;9.17;;;4.73;;
9836;SDS011;4957;51.412;6.724;2023-06-01T00:43:38;9.10;;;5.20;;
9836;SDS011;4957;51.412;6.724;2023-06-01T00:46:04;8.47;;;5.07;;
9836;SDS011;4957;51.412;6.724;2023-06-01T00:48:30;11.70;;;5.20;;
9836;SDS011;4957;51.412;6.724;2023-06-01T00:50:56;9.63;;;5.53;;
9836;SDS011;4957;51.412;6.724;2023-06-01T00:53:24;8.83;;;5.07;;
9836;SDS011;4957;51.412;6.724;2023-06-01T00:55:50;11.00;;;5.23;;
9836;SDS011;4957;51.412;6.724;2023-06-01T00:58:16;8.87;;;4.70;;
9836;SDS011;4957;51.412;6.724;2023-06-01T01:00:42;9.03;;;5.23;;
9836;SDS011;4957;51.412;6.724;2023-06-01T01:03:08;9.20;;;5.27;;
9836;SDS011;4957;51.412;6.724;2023-06-01T01:05:37;10.13;;;5.50;;
9836;SDS011;4957;51.412;6.724;2023-06-01T01:11:09;11.43;;;5.60;;
9836;SDS011;4957;51.412;6.724;2023-06-01T01:14:21;11.20;;;6.17;;
9836;SDS011;4957;51.412;6.724;2023-06-01T01:16:47;11.83;;;6.10;;
9836;SDS011;4957;51.412;6.724;2023-06-01T01:19:30;13.23;;;6.10;;
9836;SDS011;4957;51.412;6.724;2023-06-01T01:22:12;16.03;;;6.63;;
9836;SDS011;4957;51.412;6.724;2023-06-01T01:27:44;14.23;;;7.37;;
9836;SDS011;4957;51.412;6.724;2023-06-01T01:30:31;20.50;;;8.50;;
9836;SDS011;4957;51.412;6.724;2023-06-01T01:32:59;19.70;;;8.70;;
9836;SDS011;4957;51.412;6.724;2023-06-01T01:35:26;18.13;;;8.23;;
9836;SDS011;4957;51.412;6.724;2023-06-01T01:37:53;15.03;;;7.20;;
9836;SDS011;4957;51.412;6.724;2023-06-01T01:40:20;15.17;;;7.60;;
9836;SDS011;4957;51.412;6.724;2023-06-01T01:42:46;8.63;;;5.93;;
9836;SDS011;4957;51.412;6.724;2023-06-01T01:45:12;10.70;;;6.87;;
9836;SDS011;4957;51.412;6.724;2023-06-01T01:47:51;16.17;;;7.90;;
9836;SDS011;4957;51.412;6.724;2023-06-01T01:50:21;14.63;;;7.00;;
9836;SDS011;4957;51.412;6.724;2023-06-01T01:52:51;11.00;;;5.80;;
9836;SDS011;4957;51.412;6.724;2023-06-01T01:55:18;11.93;;;6.87;;
9836;SDS011;4957;51.412;6.724;2023-06-01T01:57:48;12.27;;;7.00;;
9836;SDS011;4957;51.412;6.724;2023-06-01T02:00:16;11.97;;;7.27;;
9836;SDS011;4957;51.412;6.724;2023-06-01T02:02:44;10.97;;;6.47;;
9836;SDS011;4957;51.412;6.724;2023-06-01T02:05:11;9.47;;;7.23;;
9836;SDS011;4957;51.412;6.724;2023-06-01T02:07:36;18.90;;;8.07;;
9836;SDS011;4957;51.412;6.724;2023-06-01T02:10:02;14.07;;;8.07;;
9836;SDS011;4957;51.412;6.724;2023-06-01T02:12:29;14.13;;;8.10;;
9836;SDS011;4957;51.412;6.724;2023-06-01T02:14:55;15.23;;;9.07;;
9836;SDS011;4957;51.412;6.724;2023-06-01T02:17:21;18.87;;;7.87;;
9836;SDS011;4957;51.412;6.724;2023-06-01T02:19:46;17.53;;;8.73;;
9836;SDS011;4957;51.412;6.724;2023-06-01T02:22:12;17.47;;;9.10;;
9836;SDS011;4957;51.412;6.724;2023-06-01T02:24:38;12.77;;;7.63;;
9836;SDS011;4957;51.412;6.724;2023-06-01T02:27:05;14.77;;;7.90;;
9836;SDS011;4957;51.412;6.724;2023-06-01T02:29:30;14.27;;;7.87;;
9836;SDS011;4957;51.412;6.724;2023-06-01T02:31:56;13.73;;;7.57;;
9836;SDS011;4957;51.412;6.724;2023-06-01T02:34:22;15.97;;;8.90;;
9836;SDS011;4957;51.412;6.724;2023-06-01T02:36:48;13.67;;;8.70;;
9836;SDS011;4957;51.412;6.724;2023-06-01T02:39:14;18.87;;;9.27;;
9836;SDS011;4957;51.412;6.724;2023-06-01T02:41:40;13.80;;;7.70;;
9836;SDS011;4957;51.412;6.724;2023-06-01T02:44:06;15.77;;;8.73;;
9836;SDS011;4957;51.412;6.724;2023-06-01T02:46:32;13.30;;;8.57;;
9836;SDS011;4957;51.412;6.724;2023-06-01T02:48:57;15.87;;;8.90;;
9836;SDS011;4957;51.412;6.724;2023-06-01T02:51:23;14.40;;;8.20;;
9836;SDS011;4957;51.412;6.724;2023-06-01T02:53:48;16.43;;;9.03;;
9836;SDS011;4957;51.412;6.724;2023-06-01T02:56:14;14.97;;;9.40;;
9836;SDS011;4957;51.412;6.724;2023-06-01T02:58:40;16.03;;;9.67;;
9836;SDS011;4957;51.412;6.724;2023-06-01T03:01:07;16.50;;;9.97;;
9836;SDS011;4957;51.412;6.724;2023-06-01T03:03:37;18.20;;;10.03;;
9836;SDS011;4957;51.412;6.724;2023-06-01T03:06:03;22.07;;;11.53;;
9836;SDS011;4957;51.412;6.724;2023-06-01T03:08:31;23.13;;;11.53;;
9836;SDS011;4957;51.412;6.724;2023-06-01T03:10:57;21.90;;;13.13;;
9836;SDS011;4957;51.412;6.724;2023-06-01T03:13:22;22.33;;;14.87;;
9836;SDS011;4957;51.412;6.724;2023-06-01T03:15:48;24.17;;;15.07;;
9836;SDS011;4957;51.412;6.724;2023-06-01T03:18:15;23.17;;;13.43;;
9836;SDS011;4957;51.412;6.724;2023-06-01T03:20:40;26.00;;;13.93;;
9836;SDS011;4957;51.412;6.724;2023-06-01T03:23:06;24.03;;;13.60;;
9836;SDS011;4957;51.412;6.724;2023-06-01T03:25:32;22.00;;;12.50;;
9836;SDS011;4957;51.412;6.724;2023-06-01T03:27:58;23.47;;;12.50;;
9836;SDS011;4957;51.412;6.724;2023-06-01T03:30:24;19.70;;;12.03;;
9836;SDS011;4957;51.412;6.724;2023-06-01T03:32:50;23.30;;;13.17;;
9836;SDS011;4957;51.412;6.724;2023-06-01T03:35:16;21.47;;;13.27;;
9836;SDS011;4957;51.412;6.724;2023-06-01T03:37:42;19.87;;;12.13;;
9836;SDS011;4957;51.412;6.724;2023-06-01T03:40:09;21.33;;;13.43;;
9836;SDS011;4957;51.412;6.724;2023-06-01T03:42:38;20.27;;;11.53;;
9836;SDS011;4957;51.412;6.724;2023-06-01T03:45:11;21.53;;;12.33;;
9836;SDS011;4957;51.412;6.724;2023-06-01T03:47:38;17.80;;;11.83;;
9836;SDS011;4957;51.412;6.724;2023-06-01T03:50:05;26.57;;;12.60;;
9836;SDS011;4957;51.412;6.724;2023-06-01T03:52:33;20.27;;;12.00;;
9836;SDS011;4957;51.412;6.724;2023-06-01T03:55:00;21.60;;;12.97;;
9836;SDS011;4957;51.412;6.724;2023-06-01T03:57:27;19.03;;;10.90;;
9836;SDS011;4957;51.412;6.724;2023-06-01T03:59:53;20.77;;;12.20;;
9836;SDS011;4957;51.412;6.724;2023-06-01T04:02:18;18.57;;;12.10;;
9836;SDS011;4957;51.412;6.724;2023-06-01T04:04:44;21.07;;;11.23;;
9836;SDS011;4957;51.412;6.724;2023-06-01T04:07:12;21.13;;;11.57;;
9836;SDS011;4957;51.412;6.724;2023-06-01T04:09:40;21.67;;;12.50;;
9836;SDS011;4957;51.412;6.724;2023-06-01T04:12:06;32.93;;;16.00;;
9836;SDS011;4957;51.412;6.724;2023-06-01T04:14:32;24.83;;;14.97;;
9836;SDS011;4957;51.412;6.724;2023-06-01T04:16:57;23.73;;;14.63;;
9836;SDS011;4957;51.412;6.724;2023-06-01T04:19:23;26.83;;;14.40;;
9836;SDS011;4957;51.412;6.724;2023-06-01T04:21:49;24.03;;;13.37;;
9836;SDS011;4957;51.412;6.724;2023-06-01T04:24:15;20.63;;;12.50;;
9836;SDS011;4957;51.412;6.724;2023-06-01T04:26:41;21.07;;;11.87;;
9836;SDS011;4957;51.412;6.724;2023-06-01T04:29:06;19.17;;;12.07;;
9836;SDS011;4957;51.412;6.724;2023-06-01T04:31:33;18.57;;;11.87;;
9836;SDS011;4957;51.412;6.724;2023-06-01T04:33:59;18.83;;;11.07;;
9836;SDS011;4957;51.412;6.724;2023-06-01T04:36:27;19.60;;;11.27;;
9836;SDS011;4957;51.412;6.724;2023-06-01T04:38:57;19.83;;;11.60;;
9836;SDS011;4957;51.412;6.724;2023-06-01T04:41:23;15.00;;;11.07;;
9836;SDS011;4957;51.412;6.724;2023-06-01T04:43:53;13.07;;;9.10;;
9836;SDS011;4957;51.412;6.724;2023-06-01T04:46:19;18.10;;;10.37;;
9836;SDS011;4957;51.412;6.724;2023-06-01T04:48:46;13.73;;;10.77;;
9836;SDS011;4957;51.412;6.724;2023-06-01T04:51:13;17.63;;;11.07;;
9836;SDS011;4957;51.412;6.724;2023-06-01T04:53:46;21.63;;;14.33;;
9836;SDS011;4957;51.412;6.724;2023-06-01T04:56:26;26.27;;;16.97;;
9836;SDS011;4957;51.412;6.724;2023-06-01T04:58:52;19.40;;;12.17;;
9836;SDS011;4957;51.412;6.724;2023-06-01T05:01:19;20.80;;;13.60;;
9836;SDS011;4957;51.412;6.724;2023-06-01T05:03:50;21.47;;;13.67;;
9836;SDS011;4957;51.412;6.724;2023-06-01T05:06:17;20.03;;;13.60;;
9836;SDS011;4957;51.412;6.724;2023-06-01T05:08:44;25.90;;;15.30;;
9836;SDS011;4957;51.412;6.724;2023-06-01T05:11:10;23.87;;;16.23;;
9836;SDS011;4957;51.412;6.724;2023-06-01T05:13:36;30.10;;;20.33;;
9836;SDS011;4957;51.412;6.724;2023-06-01T05:16:05;24.67;;;17.97;;
9836;SDS011;4957;51.412;6.724;2023-06-01T05:18:32;27.80;;;19.40;;
9836;SDS011;4957;51.412;6.724;2023-06-01T05:20:58;27.17;;;17.67;;
9836;SDS011;4957;51.412;6.724;2023-06-01T05:23:25;27.30;;;17.17;;
9836;SDS011;4957;51.412;6.724;2023-06-01T05:25:52;24.70;;;16.97;;
9836;SDS011;4957;51.412;6.724;2023-06-01T05:28:20;23.80;;;15.83;;
9836;SDS011;4957;51.412;6.724;2023-06-01T05:30:46;25.37;;;17.57;;
9836;SDS011;4957;51.412;6.724;2023-06-01T05:33:11;23.73;;;15.93;;
9836;SDS011;4957;51.412;6.724;2023-06-01T05:35:37;22.77;;;15.77;;
9836;SDS011;4957;51.412;6.724;2023-06-01T05:38:04;21.47;;;14.33;;
9836;SDS011;4957;51.412;6.724;2023-06-01T05:40:30;25.40;;;16.27;;
9836;SDS011;4957;51.412;6.724;2023-06-01T05:42:56;22.93;;;15.70;;
9836;SDS011;4957;51.412;6.724;2023-06-01T05:45:21;28.23;;;16.47;;
9836;SDS011;4957;51.412;6.724;2023-06-01T05:47:47;20.07;;;15.23;;
9836;SDS011;4957;51.412;6.724;2023-06-01T05:50:13;22.73;;;15.20;;
9836;SDS011;4957;51.412;6.724;2023-06-01T05:52:39;24.23;;;14.70;;
9836;SDS011;4957;51.412;6.724;2023-06-01T05:55:07;21.43;;;14.67;;
9836;SDS011;4957;51.412;6.724;2023-06-01T05:57:33;21.27;;;12.50;;
9836;SDS011;4957;51.412;6.724;2023-06-01T05:59:59;21.47;;;11.77;;
9836;SDS011;4957;51.412;6.724;2023-06-01T06:02:25;27.20;;;13.27;;
9836;SDS011;4957;51.412;6.724;2023-06-01T06:04:50;26.57;;;13.30;;
9836;SDS011;4957;51.412;6.724;2023-06-01T06:07:16;30.97;;;14.83;;
9836;SDS011;4957;51.412;6.724;2023-06-01T06:09:41;23.80;;;13.60;;
9836;SDS011;4957;51.412;6.724;2023-06-01T06:12:07;20.47;;;12.60;;
9836;SDS011;4957;51.412;6.724;2023-06-01T06:14:33;18.90;;;11.83;;
9836;SDS011;4957;51.412;6.724;2023-06-01T06:16:59;20.33;;;11.70;;
9836;SDS011;4957;51.412;6.724;2023-06-01T06:19:25;13.07;;;9.20;;
9836;SDS011;4957;51.412;6.724;2023-06-01T06:21:51;15.50;;;10.00;;
9836;SDS011;4957;51.412;6.724;2023-06-01T06:24:16;18.07;;;10.57;;
9836;SDS011;4957;51.412;6.724;2023-06-01T06:26:42;23.27;;;10.87;;
9836;SDS011;4957;51.412;6.724;2023-06-01T06:29:08;21.07;;;13.43;;
9836;SDS011;4957;51.412;6.724;2023-06-01T06:31:34;27.03;;;13.17;;
9836;SDS011;4957;51.412;6.724;2023-06-01T06:33:59;17.77;;;13.07;;
9836;SDS011;4957;51.412;6.724;2023-06-01T06:36:26;14.67;;;10.03;;
9836;SDS011;4957;51.412;6.724;2023-06-01T06:38:51;17.70;;;10.50;;
9836;SDS011;4957;51.412;6.724;2023-06-01T06:41:17;21.17;;;10.93;;
9836;SDS011;4957;51.412;6.724;2023-06-01T06:43:42;16.00;;;11.27;;
9836;SDS011;4957;51.412;6.724;2023-06-01T06:46:08;19.07;;;11.57;;
9836;SDS011;4957;51.412;6.724;2023-06-01T06:48:34;15.00;;;10.87;;
9836;SDS011;4957;51.412;6.724;2023-06-01T06:51:00;22.40;;;10.90;;
9836;SDS011;4957;51.412;6.724;2023-06-01T06:53:26;15.57;;;10.87;;
9836;SDS011;4957;51.412;6.724;2023-06-01T06:55:52;15.67;;;10.63;;
9836;SDS011;4957;51.412;6.724;2023-06-01T06:58:18;16.90;;;10.23;;
9836;SDS011;4957;51.412;6.724;2023-06-01T07:00:43;14.57;;;10.63;;
9836;SDS011;4957;51.412;6.724;2023-06-01T07:03:09;14.70;;;10.33;;
9836;SDS011;4957;51.412;6.724;2023-06-01T07:05:35;12.03;;;9.00;;
9836;SDS011;4957;51.412;6.724;2023-06-01T07:08:01;12.60;;;8.93;;
9836;SDS011;4957;51.412;6.724;2023-06-01T07:10:26;17.27;;;9.73;;
9836;SDS011;4957;51.412;6.724;2023-06-01T07:12:52;18.70;;;11.00;;
9836;SDS011;4957;51.412;6.724;2023-06-01T07:15:18;19.00;;;11.83;;
9836;SDS011;4957;51.412;6.724;2023-06-01T07:17:44;15.90;;;10.63;;
9836;SDS011;4957;51.412;6.724;2023-06-01T07:20:09;15.17;;;10.53;;
9836;SDS011;4957;51.412;6.724;2023-06-01T07:22:38;20.27;;;10.40;;
9836;SDS011;4957;51.412;6.724;2023-06-01T07:25:04;15.00;;;9.30;;
9836;SDS011;4957;51.412;6.724;2023-06-01T07:27:31;19.57;;;11.03;;
9836;SDS011;4957;51.412;6.724;2023-06-01T07:30:00;15.10;;;9.37;;
9836;SDS011;4957;51.412;6.724;2023-06-01T07:32:27;17.33;;;10.40;;
9836;SDS011;4957;51.412;6.724;2023-06-01T07:34:52;13.13;;;9.07;;
9836;SDS011;4957;51.412;6.724;2023-06-01T07:37:18;15.60;;;9.20;;
9836;SDS011;4957;51.412;6.724;2023-06-01T07:39:50;15.23;;;10.33;;
9836;SDS011;4957;51.412;6.724;2023-06-01T07:42:16;18.90;;;10.57;;
9836;SDS011;4957;51.412;6.724;2023-06-01T07:44:41;11.90;;;9.20;;
9836;SDS011;4957;51.412;6.724;2023-06-01T07:47:07;15.70;;;9.10;;
9836;SDS011;4957;51.412;6.724;2023-06-01T07:49:33;14.03;;;9.13;;
9836;SDS011;4957;51.412;6.724;2023-06-01T07:52:02;14.00;;;9.40;;
9836;SDS011;4957;51.412;6.724;2023-06-01T07:54:29;16.23;;;8.80;;
9836;SDS011;4957;51.412;6.724;2023-06-01T07:56:56;13.90;;;8.63;;
9836;SDS011;4957;51.412;6.724;2023-06-01T07:59:22;16.70;;;9.30;;
9836;SDS011;4957;51.412;6.724;2023-06-01T08:01:49;16.60;;;9.80;;
9836;SDS011;4957;51.412;6.724;2023-06-01T08:04:17;14.57;;;8.77;;
9836;SDS011;4957;51.412;6.724;2023-06-01T08:06:45;12.40;;;8.67;;
9836;SDS011;4957;51.412;6.724;2023-06-01T08:09:12;14.50;;;8.63;;
9836;SDS011;4957;51.412;6.724;2023-06-01T08:11:37;12.13;;;8.57;;
9836;SDS011;4957;51.412;6.724;2023-06-01T08:14:03;14.20;;;8.20;;
9836;SDS011;4957;51.412;6.724;2023-06-01T08:16:32;11.60;;;8.23;;
9836;SDS011;4957;51.412;6.724;2023-06-01T08:18:58;11.83;;;7.83;;
9836;SDS011;4957;51.412;6.724;2023-06-01T08:21:24;16.57;;;8.63;;
9836;SDS011;4957;51.412;6.724;2023-06-01T08:23:50;12.93;;;7.83;;
9836;SDS011;4957;51.412;6.724;2023-06-01T08:26:19;14.83;;;7.47;;
9836;SDS011;4957;51.412;6.724;2023-06-01T08:28:46;9.83;;;7.10;;
9836;SDS011;4957;51.412;6.724;2023-06-01T08:31:20;14.80;;;7.40;;
9836;SDS011;4957;51.412;6.724;2023-06-01T08:33:47;15.00;;;8.20;;
9836;SDS011;4957;51.412;6.724;2023-06-01T08:36:14;15.53;;;8.50;;
9836;SDS011;4957;51.412;6.724;2023-06-01T08:38:40;12.33;;;7.80;;
9836;SDS011;4957;51.412;6.724;2023-06-01T08:44:04;12.10;;;7.57;;
9836;SDS011;4957;51.412;6.724;2023-06-01T08:46:33;11.70;;;8.13;;
9836;SDS011;4957;51.412;6.724;2023-06-01T08:49:01;9.17;;;6.73;;
9836;SDS011;4957;51.412;6.724;2023-06-01T08:51:29;17.27;;;7.90;;
9836;SDS011;4957;51.412;6.724;2023-06-01T08:53:58;13.50;;;7.67;;
9836;SDS011;4957;51.412;6.724;2023-06-01T08:56:28;16.47;;;7.67;;
9836;SDS011;4957;51.412;6.724;2023-06-01T08:58:54;14.47;;;6.50;;
9836;SDS011;4957;51.412;6.724;2023-06-01T09:01:21;11.33;;;6.77;;
9836;SDS011;4957;51.412;6.724;2023-06-01T09:03:48;12.37;;;6.97;;
9836;SDS011;4957;51.412;6.724;2023-06-01T09:06:15;10.00;;;6.53;;
9836;SDS011;4957;51.412;6.724;2023-06-01T09:08:41;12.10;;;6.23;;
9836;SDS011;4957;51.412;6.724;2023-06-01T09:11:07;9.63;;;6.37;;
9836;SDS011;4957;51.412;6.724;2023-06-01T09:13:36;11.47;;;7.17;;
9836;SDS011;4957;51.412;6.724;2023-06-01T09:16:03;15.97;;;7.20;;
9836;SDS011;4957;51.412;6.724;2023-06-01T09:18:29;12.00;;;6.73;;
9836;SDS011;4957;51.412;6.724;2023-06-01T09:21:09;13.63;;;6.93;;
9836;SDS011;4957;51.412;6.724;2023-06-01T09:23:39;11.70;;;6.87;;
9836;SDS011;4957;51.412;6.724;2023-06-01T09:26:07;14.23;;;6.70;;
9836;SDS011;4957;51.412;6.724;2023-06-01T09:31:37;12.00;;;7.07;;
9836;SDS011;4957;51.412;6.724;2023-06-01T09:34:11;15.83;;;7.30;;
9836;SDS011;4957;51.412;6.724;2023-06-01T09:36:40;10.67;;;6.70;;
9836;SDS011;4957;51.412;6.724;2023-06-01T09:39:07;14.63;;;6.47;;
9836;SDS011;4957;51.412;6.724;2023-06-01T09:44:13;14.50;;;7.50;;
9836;SDS011;4957;51.412;6.724;2023-06-01T09:46:46;9.93;;;5.83;;
9836;SDS011;4957;51.412;6.724;2023-06-01T09:49:17;18.50;;;6.93;;
9836;SDS011;4957;51.412;6.724;2023-06-01T09:51:45;13.23;;;6.67;;
9836;SDS011;4957;51.412;6.724;2023-06-01T09:54:21;11.93;;;7.03;;
9836;SDS011;4957;51.412;6.724;2023-06-01T09:56:51;15.33;;;6.87;;
9836;SDS011;4957;51.412;6.724;2023-06-01T09:59:18;13.43;;;6.67;;
9836;SDS011;4957;51.412;6.724;2023-06-01T10:01:47;16.63;;;6.90;;
9836;SDS011;4957;51.412;6.724;2023-06-01T10:04:26;14.07;;;7.77;;
9836;SDS011;4957;51.412;6.724;2023-06-01T10:06:54;16.03;;;7.53;;
9836;SDS011;4957;51.412;6.724;2023-06-01T10:09:21;14.30;;;8.00;;
9836;SDS011;4957;51.412;6.724;2023-06-01T10:11:51;13.40;;;6.83;;
9836;SDS011;4957;51.412;6.724;2023-06-01T10:14:21;16.27;;;6.60;;
9836;SDS011;4957;51.412;6.724;2023-06-01T10:16:49;16.33;;;7.13;;
9836;SDS011;4957;51.412;6.724;2023-06-01T10:19:16;14.53;;;6.87;;
9836;SDS011;4957;51.412;6.724;2023-06-01T10:21:43;15.10;;;6.27;;
9836;SDS011;4957;51.412;6.724;2023-06-01T10:24:12;11.33;;;5.97;;
9836;SDS011;4957;51.412;6.724;2023-06-01T10:26:51;13.87;;;6.40;;
9836;SDS011;4957;51.412;6.724;2023-06-01T10:29:20;9.73;;;5.93;;
9836;SDS011;4957;51.412;6.724;2023-06-01T10:31:46;13.50;;;7.03;;
9836;SDS011;4957;51.412;6.724;2023-06-01T10:34:12;16.97;;;7.20;;
9836;SDS011;4957;51.412;6.724;2023-06-01T10:41:55;11.83;;;6.30;;
9836;SDS011;4957;51.412;6.724;2023-06-01T10:44:45;18.03;;;6.27;;
9836;SDS011;4957;51.412;6.724;2023-06-01T10:50:22;10.27;;;6.50;;
9836;SDS011;4957;51.412;6.724;2023-06-01T10:54:53;12.33;;;6.40;;
9836;SDS011;4957;51.412;6.724;2023-06-01T10:57:35;11.43;;;6.23;;
9836;SDS011;4957;51.412;6.724;2023-06-01T11:02:55;11.20;;;5.63;;
9836;SDS011;4957;51.412;6.724;2023-06-01T11:05:38;12.47;;;6.30;;
9836;SDS011;4957;51.412;6.724;2023-06-01T11:08:07;15.20;;;6.43;;
9836;SDS011;4957;51.412;6.724;2023-06-01T11:13:28;8.70;;;6.03;;
9836;SDS011;4957;51.412;6.724;2023-06-01T11:21:32;9.60;;;5.83;;
9836;SDS011;4957;51.412;6.724;2023-06-01T11:24:05;7.63;;;5.60;;
9836;SDS011;4957;51.412;6.724;2023-06-01T11:26:35;13.03;;;6.30;;
9836;SDS011;4957;51.412;6.724;2023-06-01T11:29:12;14.73;;;7.30;;
9836;SDS011;4957;51.412;6.724;2023-06-01T11:31:49;11.67;;;6.50;;
9836;SDS011;4957;51.412;6.724;2023-06-01T11:34:26;10.30;;;6.20;;
9836;SDS011;4957;51.412;6.724;2023-06-01T11:36:54;9.03;;;6.00;;
9836;SDS011;4957;51.412;6.724;2023-06-01T11:39:23;11.67;;;6.73;;
9836;SDS011;4957;51.412;6.724;2023-06-01T11:41:51;16.17;;;6.63;;
9836;SDS011;4957;51.412;6.724;2023-06-01T11:44:30;9.33;;;5.90;;
9836;SDS011;4957;51.412;6.724;2023-06-01T11:46:56;14.67;;;6.20;;
9836;SDS011;4957;51.412;6.724;2023-06-01T11:49:23;13.53;;;6.00;;
9836;SDS011;4957;51.412;6.724;2023-06-01T11:51:50;9.17;;;6.57;;
9836;SDS011;4957;51.412;6.724;2023-06-01T11:54:16;14.50;;;7.10;;
9836;SDS011;4957;51.412;6.724;2023-06-01T11:56:47;11.20;;;6.80;;
9836;SDS011;4957;51.412;6.724;2023-06-01T11:59:13;9.53;;;6.30;;
9836;SDS011;4957;51.412;6.724;2023-06-01T12:01:42;12.60;;;6.80;;
9836;SDS011;4957;51.412;6.724;2023-06-01T12:04:13;12.57;;;6.73;;
9836;SDS011;4957;51.412;6.724;2023-06-01T12:06:44;12.67;;;6.33;;
9836;SDS011;4957;51.412;6.724;2023-06-01T12:09:11;9.77;;;6.73;;
9836;SDS011;4957;51.412;6.724;2023-06-01T12:11:38;10.37;;;5.53;;
9836;SDS011;4957;51.412;6.724;2023-06-01T12:14:06;11.83;;;5.83;;
9836;SDS011;4957;51.412;6.724;2023-06-01T12:19:30;9.57;;;5.50;;
9836;SDS011;4957;51.412;6.724;2023-06-01T12:21:57;8.80;;;5.77;;
9836;SDS011;4957;51.412;6.724;2023-06-01T12:24:31;11.63;;;7.03;;
9836;SDS011;4957;51.412;6.724;2023-06-01T12:26:58;9.10;;;5.60;;
9836;SDS011;4957;51.412;6.724;2023-06-01T12:32:10;8.23;;;5.80;;
9836;SDS011;4957;51.412;6.724;2023-06-01T12:34:40;11.40;;;5.20;;
9836;SDS011;4957;51.412;6.724;2023-06-01T12:37:20;11.67;;;5.70;;
9836;SDS011;4957;51.412;6.724;2023-06-01T12:39:52;9.27;;;5.40;;
9836;SDS011;4957;51.412;6.724;2023-06-01T12:42:19;13.80;;;8.10;;
9836;SDS011;4957;51.412;6.724;2023-06-01T12:44:51;16.23;;;8.07;;
9836;SDS011;4957;51.412;6.724;2023-06-01T12:47:20;7.93;;;5.43;;
9836;SDS011;4957;51.412;6.724;2023-06-01T12:50:02;10.60;;;5.67;;
9836;SDS011;4957;51.412;6.724;2023-06-01T12:52:31;8.90;;;5.57;;
9836;SDS011;4957;51.412;6.724;2023-06-01T12:54:57;11.67;;;5.30;;
9836;SDS011;4957;51.412;6.724;2023-06-01T12:57:23;14.10;;;6.00;;
9836;SDS011;4957;51.412;6.724;2023-06-01T12:59:49;9.17;;;5.60;;
9836;SDS011;4957;51.412;6.724;2023-06-01T13:02:14;10.23;;;5.50;;
9836;SDS011;4957;51.412;6.724;2023-06-01T13:04:42;10.00;;;5.80;;
9836;SDS011;4957;51.412;6.724;2023-06-01T13:07:08;8.70;;;5.77;;
9836;SDS011;4957;51.412;6.724;2023-06-01T13:09:34;12.00;;;6.70;;
9836;SDS011;4957;51.412;6.724;2023-06-01T13:12:00;11.30;;;6.43;;
9836;SDS011;4957;51.412;6.724;2023-06-01T13:14:28;9.77;;;6.17;;
9836;SDS011;4957;51.412;6.724;2023-06-01T13:16:54;12.83;;;6.87;;
9836;SDS011;4957;51.412;6.724;2023-06-01T13:19:20;11.53;;;6.93;;
9836;SDS011;4957;51.412;6.724;2023-06-01T13:21:46;13.97;;;7.17;;
9836;SDS011;4957;51.412;6.724;2023-06-01T13:24:12;12.83;;;6.77;;
9836;SDS011;4957;51.412;6.724;2023-06-01T13:26:38;9.07;;;6.20;;
9836;SDS011;4957;51.412;6.724;2023-06-01T13:29:04;10.83;;;5.47;;
9836;SDS011;4957;51.412;6.724;2023-06-01T13:31:31;12.27;;;6.30;;
9836;SDS011;4957;51.412;6.724;2023-06-01T13:33:58;10.37;;;6.27;;
9836;SDS011;4957;51.412;6.724;2023-06-01T13:36:24;11.83;;;6.30;;
9836;SDS011;4957;51.412;6.724;2023-06-01T13:38:49;10.37;;;6.23;;
9836;SDS011;4957;51.412;6.724;2023-06-01T13:41:15;10.20;;;6.03;;
9836;SDS011;4957;51.412;6.724;2023-06-01T13:43:41;8.37;;;5.60;;
9836;SDS011;4957;51.412;6.724;2023-06-01T13:46:06;11.17;;;6.60;;
9836;SDS011;4957;51.412;6.724;2023-06-01T13:48:34;10.07;;;6.50;;
9836;SDS011;4957;51.412;6.724;2023-06-01T13:51:00;9.83;;;5.63;;
9836;SDS011;4957;51.412;6.724;2023-06-01T13:53:26;7.97;;;5.67;;
9836;SDS011;4957;51.412;6.724;2023-06-01T13:55:52;10.80;;;5.33;;
9836;SDS011;4957;51.412;6.724;2023-06-01T13:58:17;7.43;;;5.90;;
9836;SDS011;4957;51.412;6.724;2023-06-01T14:00:43;8.97;;;6.17;;
9836;SDS011;4957;51.412;6.724;2023-06-01T14:03:09;9.03;;;5.70;;
9836;SDS011;4957;51.412;6.724;2023-06-01T14:05:35;11.00;;;5.43;;
9836;SDS011;4957;51.412;6.724;2023-06-01T14:08:00;9.40;;;5.40;;
9836;SDS011;4957;51.412;6.724;2023-06-01T14:10:27;12.63;;;5.57;;
9836;SDS011;4957;51.412;6.724;2023-06-01T14:12:53;5.87;;;4.93;;
9836;SDS011;4957;51.412;6.724;2023-06-01T14:15:19;9.67;;;5.23;;
9836;SDS011;4957;51.412;6.724;2023-06-01T14:17:44;9.43;;;6.00;;
9836;SDS011;4957;51.412;6.724;2023-06-01T14:20:10;12.40;;;5.70;;
9836;SDS011;4957;51.412;6.724;2023-06-01T14:22:36;7.93;;;4.80;;
9836;SDS011;4957;51.412;6.724;2023-06-01T14:25:01;10.50;;;5.93;;
9836;SDS011;4957;51.412;6.724;2023-06-01T14:27:28;9.10;;;5.70;;
9836;SDS011;4957;51.412;6.724;2023-06-01T14:29:53;9.57;;;5.37;;
9836;SDS011;4957;51.412;6.724;2023-06-01T14:32:19;10.37;;;5.30;;
9836;SDS011;4957;51.412;6.724;2023-06-01T14:34:45;8.23;;;6.27;;
9836;SDS011;4957;51.412;6.724;2023-06-01T14:37:11;12.20;;;6.93;;
9836;SDS011;4957;51.412;6.724;2023-06-01T14:39:38;8.90;;;6.60;;
9836;SDS011;4957;51.412;6.724;2023-06-01T14:42:04;8.03;;;5.83;;
9836;SDS011;4957;51.412;6.724;2023-06-01T14:44:30;8.57;;;5.90;;
9836;SDS011;4957;51.412;6.724;2023-06-01T14:46:56;12.53;;;6.73;;
9836;SDS011;4957;51.412;6.724;2023-06-01T14:49:21;10.73;;;5.60;;
9836;SDS011;4957;51.412;6.724;2023-06-01T14:51:47;9.30;;;5.73;;
9836;SDS011;4957;51.412;6.724;2023-06-01T14:54:12;12.13;;;5.90;;
9836;SDS011;4957;51.412;6.724;2023-06-01T14:56:38;9.37;;;5.20;;
9836;SDS011;4957;51.412;6.724;2023-06-01T14:59:04;7.90;;;5.03;;
9836;SDS011;4957;51.412;6.724;2023-06-01T15:01:29;8.93;;;5.83;;
9836;SDS011;4957;51.412;6.724;2023-06-01T15:03:55;9.23;;;5.47;;
9836;SDS011;4957;51.412;6.724;2023-06-01T15:06:21;8.97;;;5.47;;
9836;SDS011;4957;51.412;6.724;2023-06-01T15:08:46;6.97;;;5.33;;
9836;SDS011;4957;51.412;6.724;2023-06-01T15:11:12;9.50;;;5.50;;
9836;SDS011;4957;51.412;6.724;2023-06-01T15:13:39;8.03;;;5.57;;
9836;SDS011;4957;51.412;6.724;2023-06-01T15:16:06;8.93;;;5.50;;
9836;SDS011;4957;51.412;6.724;2023-06-01T15:18:33;10.57;;;6.07;;
9836;SDS011;4957;51.412;6.724;2023-06-01T15:20:58;9.13;;;5.53;;
9836;SDS011;4957;51.412;6.724;2023-06-01T15:23:25;11.87;;;5.40;;
9836;SDS011;4957;51.412;6.724;2023-06-01T15:25:52;8.93;;;5.40;;
9836;SDS011;4957;51.412;6.724;2023-06-01T15:28:17;10.60;;;5.23;;
9836;SDS011;4957;51.412;6.724;2023-06-01T15:30:44;10.00;;;6.30;;
9836;SDS011;4957;51.412;6.724;2023-06-01T15:33:09;7.33;;;5.30;;
9836;SDS011;4957;51.412;6.724;2023-06-01T15:35:35;12.87;;;5.57;;
9836;SDS011;4957;51.412;6.724;2023-06-01T15:38:01;7.60;;;4.93;;
9836;SDS011;4957;51.412;6.724;2023-06-01T15:40:27;11.97;;;5.60;;
9836;SDS011;4957;51.412;6.724;2023-06-01T15:42:52;10.27;;;5.60;;
9836;SDS011;4957;51.412;6.724;2023-06-01T15:45:18;9.47;;;5.10;;